Time;durP1;ratioP1;P1;durP2;ratioP2;P2;SDS_P1;SDS_P2;PMS_P1;PMS_P2;Temp;Humidity;BMP_temperature;BMP_pressure;BME280_temperature;BME280_humidity;BME280_pressure;Samples;Min_cycle;Max_cycle;Signal;HPM_P1;HPM_P2
2021/08/16 00:00:45;;;;;;;0.40;0.00;;;;;;;22.26;60.90;99896.83;126452;1093;102946;-83
2021/08/16 00:03:13;;;;;;;0.40;0.00;;;;;;;22.23;60.23;99892.52;126473;1096;103039;-82
2021/08/16 00:05:41;;;;;;;0.40;0.00;;;;;;;22.21;60.46;99889.94;126455;1095;101902;-83
2021/08/16 00:08:09;;;;;;;0.40;0.00;;;;;;;22.22;60.95;99888.11;126432;1096;102868;-83
2021/08/16 00:10:38;;;;;;;0.40;0.00;;;;;;;22.24;59.92;99879.84;126428;1093;102871;-82
2021/08/16 00:13:05;;;;;;;0.40;0.00;;;;;;;22.19;60.12;99872.95;126470;1094;103007;-83
2021/08/16 00:15:32;;;;;;;0.40;0.00;;;;;;;22.18;59.98;99890.20;126394;1093;103063;-83
2021/08/16 00:18:00;;;;;;;0.40;0.00;;;;;;;22.14;60.29;99888.74;126437;1096;102856;-83
2021/08/16 00:20:28;;;;;;;0.40;0.00;;;;;;;22.07;60.11;99879.38;126397;1093;102965;-82
2021/08/16 00:22:56;;;;;;;0.40;0.00;;;;;;;22.06;60.13;99883.10;126481;1092;100730;-83
2021/08/16 00:25:23;;;;;;;0.40;0.00;;;;;;;22.06;60.09;99885.81;126399;1093;103326;-83
2021/08/16 00:27:51;;;;;;;0.40;0.00;;;;;;;22.12;60.41;99881.72;126402;1093;103039;-83
2021/08/16 00:30:20;;;;;;;0.40;0.03;;;;;;;22.14;60.07;99882.44;126436;1093;102871;-83
2021/08/16 00:32:47;;;;;;;0.40;0.00;;;;;;;22.25;59.87;99879.70;126498;1093;103099;-82
2021/08/16 00:35:14;;;;;;;0.40;0.00;;;;;;;22.33;60.28;99879.07;126404;1093;102900;-82
2021/08/16 00:37:42;;;;;;;0.40;0.00;;;;;;;;;;126411;1093;102914;-83
2021/08/16 00:40:09;;;;;;;0.40;0.00;;;;;;;22.33;60.72;99863.64;126435;1093;101554;-83
2021/08/16 00:42:36;;;;;;;0.40;0.00;;;;;;;22.34;60.62;99856.38;126453;1096;103316;-82
2021/08/16 00:45:04;;;;;;;0.40;0.00;;;;;;;22.25;59.99;99855.29;126390;1096;103002;-83
2021/08/16 00:47:31;;;;;;;0.40;0.00;;;;;;;22.12;60.34;99852.73;126421;1096;103045;-83
2021/08/16 00:49:58;;;;;;;0.40;0.00;;;;;;;22.03;60.55;99850.80;126378;1093;102133;-83
2021/08/16 00:52:27;;;;;;;0.40;0.00;;;;;;;21.97;61.00;99843.19;126448;1093;101557;-82
2021/08/16 00:54:56;;;;;;;0.40;0.00;;;;;;;22.05;61.04;99852.39;126438;1093;102887;-82
2021/08/16 00:57:29;;;;;;;0.40;0.00;;;;;;;22.04;61.01;99852.52;126443;1093;101683;-83
2021/08/16 01:00:00;;;;;;;0.40;0.00;;;;;;;22.05;61.28;99851.55;126461;1093;102932;-82
2021/08/16 01:02:28;;;;;;;0.40;0.00;;;;;;;22.06;61.46;99850.56;126601;1093;101661;-83
2021/08/16 01:04:55;;;;;;;0.40;0.00;;;;;;;22.14;60.82;99852.60;126491;1093;115905;-87
2021/08/16 01:07:22;;;;;;;0.40;0.00;;;;;;;22.19;60.75;99856.67;126521;1093;103087;-89
2021/08/16 01:09:49;;;;;;;0.40;0.00;;;;;;;22.17;60.81;99846.95;126503;1093;103374;-89
2021/08/16 01:12:17;;;;;;;0.40;0.00;;;;;;;22.13;60.87;99843.62;126558;1093;102997;-87
2021/08/16 01:14:44;;;;;;;0.40;0.00;;;;;;;22.16;60.66;99843.34;126483;1095;102908;-85
2021/08/16 01:17:13;;;;;;;0.40;0.00;;;;;;;22.18;60.97;99846.81;126582;1093;102955;-88
2021/08/16 01:19:41;;;;;;;0.40;0.00;;;;;;;22.09;60.93;99842.16;126480;1093;102901;-87
2021/08/16 01:22:09;;;;;;;0.40;0.00;;;;;;;22.04;61.67;99847.09;126549;1093;103082;-87
2021/08/16 01:24:36;;;;;;;0.40;0.00;;;;;;;22.04;61.04;99836.25;126517;1095;103116;-86
2021/08/16 01:27:08;;;;;;;0.40;0.00;;;;;;;21.94;61.05;99836.17;126431;1093;102907;-86
2021/08/16 01:29:36;;;;;;;0.40;0.00;;;;;;;21.93;61.53;99834.44;126504;1093;103006;-86
2021/08/16 01:32:08;;;;;;;0.40;0.00;;;;;;;22.00;61.22;99830.22;126490;1096;103274;-87
2021/08/16 01:34:35;;;;;;;0.40;0.00;;;;;;;21.96;60.80;99836.03;126523;1093;102881;-87
2021/08/16 01:37:10;;;;;;;0.40;0.00;;;;;;;21.92;61.08;99826.44;126442;1094;103006;-86
2021/08/16 01:39:39;;;;;;;0.40;0.00;;;;;;;21.86;60.47;99833.23;126497;1096;102965;-86
2021/08/16 01:42:07;;;;;;;0.40;0.00;;;;;;;21.86;60.52;99819.69;126636;1096;102897;-85
2021/08/16 01:44:34;;;;;;;0.40;0.00;;;;;;;21.87;60.81;99816.84;126466;1096;103055;-86
2021/08/16 01:47:01;;;;;;;0.40;0.00;;;;;;;21.82;60.85;99813.65;126492;1095;103033;-86
2021/08/16 01:49:28;;;;;;;0.40;0.00;;;;;;;21.68;61.54;99816.63;126447;1095;102884;-86
2021/08/16 01:52:08;;;;;;;0.40;0.00;;;;;;;21.61;61.53;99818.14;126473;1096;102924;-86
2021/08/16 01:54:45;;;;;;;0.40;0.00;;;;;;;21.53;61.03;99816.02;126466;1094;102887;-85
2021/08/16 01:57:13;;;;;;;0.40;0.00;;;;;;;21.48;60.99;99818.23;126493;1096;103046;-85
2021/08/16 01:59:41;;;;;;;0.40;0.00;;;;;;;21.42;61.18;99816.89;126483;1093;103001;-85
2021/08/16 02:02:08;;;;;;;0.40;0.00;;;;;;;21.31;61.49;99808.77;126528;1093;101908;-85
2021/08/16 02:04:36;;;;;;;0.40;0.00;;;;;;;21.27;62.02;99797.30;126603;1094;102930;-86
2021/08/16 02:07:03;;;;;;;0.40;0.00;;;;;;;21.27;61.82;99802.72;126557;1093;102908;-90
2021/08/16 02:09:30;;;;;;;0.40;0.00;;;;;;;21.38;62.61;99796.46;126598;1092;102929;-85
2021/08/16 02:11:57;;;;;;;0.40;0.00;;;;;;;21.35;62.42;99791.27;126574;1093;103460;-86
2021/08/16 02:14:24;;;;;;;0.40;0.00;;;;;;;21.32;61.92;99784.25;126595;1093;102969;-85
2021/08/16 02:17:17;;;;;;;0.40;0.00;;;;;;;21.28;62.21;99785.49;126543;1093;103049;-86
2021/08/16 02:19:46;;;;;;;0.40;0.00;;;;;;;21.25;62.16;99771.36;126577;1093;102930;-86
2021/08/16 02:22:48;;;;;;;0.40;0.00;;;;;;;21.27;62.11;99769.38;126604;1093;102931;-89
2021/08/16 02:25:15;;;;;;;0.40;0.00;;;;;;;21.19;61.81;99765.45;126468;1091;102984;-86
2021/08/16 02:27:48;;;;;;;0.40;0.00;;;;;;;21.20;62.18;99769.02;126500;1096;102994;-91
2021/08/16 02:30:18;;;;;;;0.40;0.00;;;;;;;21.28;62.09;99769.24;126487;1093;102894;-87
2021/08/16 02:32:56;;;;;;;0.40;0.08;;;;;;;21.26;61.30;99776.65;126543;1093;102962;-86
2021/08/16 02:35:23;;;;;;;0.40;0.00;;;;;;;21.21;61.57;99781.58;126457;1096;102977;-86
2021/08/16 02:37:50;;;;;;;0.40;0.00;;;;;;;21.18;61.44;99782.68;126416;1093;102946;-85
2021/08/16 02:40:59;;;;;;;0.40;0.00;;;;;;;21.23;61.35;99787.71;126502;1093;103093;-86
2021/08/16 02:44:02;;;;;;;0.40;0.00;;;;;;;21.17;61.35;99778.24;126458;1093;102903;-85
2021/08/16 02:46:29;;;;;;;0.40;0.00;;;;;;;21.14;61.78;99766.78;126395;1093;103972;-85
2021/08/16 02:48:57;;;;;;;0.40;0.00;;;;;;;21.11;61.85;99765.22;126440;1096;103033;-86
2021/08/16 02:51:58;;;;;;;0.40;0.00;;;;;;;21.13;61.32;99765.94;126500;1096;104435;-86
2021/08/16 02:54:25;;;;;;;0.40;0.00;;;;;;;21.15;61.49;99760.39;126464;1093;102890;-86
2021/08/16 02:56:52;;;;;;;0.40;0.00;;;;;;;21.13;61.58;99756.97;126411;1093;103753;-86
2021/08/16 03:00:13;;;;;;;0.40;0.00;;;;;;;21.12;61.46;99757.95;126391;1093;102962;-85
2021/08/16 03:03:10;;;;;;;0.40;0.00;;;;;;;21.14;61.27;99758.66;126466;1095;102681;-85
2021/08/16 03:05:37;;;;;;;0.40;0.00;;;;;;;21.17;61.27;99766.56;126410;1093;103393;-85
2021/08/16 03:08:05;;;;;;;0.40;0.00;;;;;;;21.12;61.40;99755.23;126363;1094;103122;-87
2021/08/16 03:10:35;;;;;;;0.40;0.00;;;;;;;21.09;61.71;99755.50;126253;1093;102998;-86
2021/08/16 03:13:02;;;;;;;0.40;0.00;;;;;;;21.07;61.90;99755.59;126386;1093;102972;-88
2021/08/16 03:15:29;;;;;;;0.40;0.00;;;;;;;21.03;61.49;99755.00;126289;1095;102904;-86
2021/08/16 03:17:58;;;;;;;0.40;0.00;;;;;;;21.01;61.83;99754.25;126273;1093;102902;-86
2021/08/16 03:20:27;;;;;;;0.40;0.10;;;;;;;20.99;62.20;99752.65;126296;1091;103507;-88
2021/08/16 03:22:54;;;;;;;0.40;0.00;;;;;;;20.97;61.85;99751.92;126272;1093;102967;-87
2021/08/16 03:25:22;;;;;;;0.40;0.00;;;;;;;20.95;62.69;99751.17;126289;1094;102900;-87
2021/08/16 03:27:49;;;;;;;0.40;0.00;;;;;;;20.96;62.25;99753.75;126241;1092;103005;-86
2021/08/16 03:30:17;;;;;;;0.40;0.00;;;;;;;20.97;61.96;99754.63;126227;1093;103039;-87
2021/08/16 03:32:47;;;;;;;0.40;0.00;;;;;;;20.92;62.05;99762.26;126233;1091;102907;-87
2021/08/16 03:35:15;;;;;;;0.40;0.00;;;;;;;20.90;62.22;99758.80;126258;1093;102874;-88
2021/08/16 03:37:43;;;;;;;0.40;0.00;;;;;;;20.92;62.31;99752.28;126324;1093;102910;-86
2021/08/16 03:40:11;;;;;;;0.40;0.00;;;;;;;20.88;62.81;99743.53;126282;1093;102975;-87
2021/08/16 03:42:39;;;;;;;0.40;0.00;;;;;;;20.88;62.18;99754.36;126307;1093;102885;-87
2021/08/16 03:45:11;;;;;;;0.40;0.00;;;;;;;20.93;62.47;99748.59;126284;1094;103094;-87
2021/08/16 03:47:38;;;;;;;0.40;0.00;;;;;;;20.93;62.51;99753.16;126253;1093;103040;-87
2021/08/16 03:50:07;;;;;;;0.40;0.00;;;;;;;20.94;63.00;99747.63;126293;1093;102887;-87
2021/08/16 03:52:34;;;;;;;0.40;0.00;;;;;;;20.94;63.14;99746.73;126267;1093;102928;-88
2021/08/16 03:55:01;;;;;;;0.40;0.00;;;;;;;20.95;63.10;99738.52;126317;1094;102938;-87
2021/08/16 03:57:29;;;;;;;0.40;0.00;;;;;;;20.91;63.30;99737.02;126335;1093;102978;-91
2021/08/16 03:59:56;;;;;;;0.40;0.00;;;;;;;20.85;63.33;99738.38;126264;1093;102910;-87
2021/08/16 04:02:23;;;;;;;0.40;0.00;;;;;;;20.87;63.03;99731.01;126307;1093;102978;-86
2021/08/16 04:04:51;;;;;;;0.40;0.00;;;;;;;20.92;63.31;99727.07;126271;1093;102924;-87
2021/08/16 04:07:18;;;;;;;0.40;0.00;;;;;;;20.91;63.13;99725.34;126323;1093;102886;-87
2021/08/16 04:09:46;;;;;;;0.40;0.00;;;;;;;20.86;63.61;99726.58;126289;1092;102908;-87
2021/08/16 04:12:15;;;;;;;0.40;0.00;;;;;;;20.81;63.50;99734.20;126274;1093;102905;-90
2021/08/16 04:14:42;;;;;;;0.40;0.00;;;;;;;20.79;63.52;99727.19;126318;1093;103822;-87
2021/08/16 04:17:10;;;;;;;0.40;0.00;;;;;;;20.87;63.69;99727.42;126244;1093;102914;-87
2021/08/16 04:19:39;;;;;;;0.40;0.00;;;;;;;20.89;63.71;99717.34;126256;1093;103930;-86
2021/08/16 04:22:06;;;;;;;0.40;0.00;;;;;;;20.92;63.64;99714.38;126293;1093;103060;-87
2021/08/16 04:24:34;;;;;;;0.40;0.00;;;;;;;20.97;64.04;99716.73;126253;1093;102894;-87
2021/08/16 04:27:01;;;;;;;0.40;0.00;;;;;;;20.98;63.98;99729.27;126199;1094;103026;-88
2021/08/16 04:29:29;;;;;;;0.40;0.00;;;;;;;21.01;63.86;99726.33;126244;1093;102924;-89
2021/08/16 04:31:56;;;;;;;0.40;0.00;;;;;;;21.00;63.65;99728.16;126240;1095;103113;-87
2021/08/16 04:34:24;;;;;;;0.40;0.00;;;;;;;20.96;63.96;99732.09;126242;1093;102885;-87
2021/08/16 04:36:51;;;;;;;0.40;0.00;;;;;;;20.97;63.81;99739.24;126241;1094;102947;-88
2021/08/16 04:39:18;;;;;;;0.40;0.00;;;;;;;20.95;64.13;99743.05;126238;1093;102988;-86
2021/08/16 04:41:45;;;;;;;0.40;0.00;;;;;;;20.92;64.45;99738.75;126264;1093;102896;-87
2021/08/16 04:44:12;;;;;;;0.40;0.00;;;;;;;20.91;64.99;99739.72;126305;1093;103026;-88
2021/08/16 04:46:40;;;;;;;0.40;0.00;;;;;;;20.88;64.56;99739.98;126296;1093;102980;-87
2021/08/16 04:49:07;;;;;;;0.40;0.00;;;;;;;20.94;64.71;99738.62;126334;1093;102380;-87
2021/08/16 04:51:41;;;;;;;0.40;0.00;;;;;;;21.01;64.35;99735.30;126412;1093;103013;-86
2021/08/16 04:54:31;;;;;;;0.40;0.00;;;;;;;21.01;64.42;99740.72;126757;1096;103026;-87
2021/08/16 04:57:16;;;;;;;0.40;0.10;;;;;;;21.01;64.61;99737.16;126334;1092;102919;-88
2021/08/16 04:59:45;;;;;;;0.40;0.10;;;;;;;21.03;65.17;99743.29;126393;1093;103045;-90
2021/08/16 05:02:12;;;;;;;0.40;0.00;;;;;;;21.03;64.72;99733.34;126383;1093;103023;-88
2021/08/16 05:04:40;;;;;;;0.40;0.00;;;;;;;20.95;65.01;99718.69;126360;1093;103019;-88
2021/08/16 05:07:07;;;;;;;0.40;0.00;;;;;;;20.86;65.86;99714.90;126337;1093;102958;-89
2021/08/16 05:09:34;;;;;;;0.40;0.00;;;;;;;20.87;66.06;99717.48;126284;1092;103062;-89
2021/08/16 05:12:20;;;;;;;0.40;0.10;;;;;;;20.98;65.68;99732.84;126390;1093;102887;-88
2021/08/16 05:14:58;;;;;;;0.40;0.00;;;;;;;20.97;66.14;99731.12;126292;1093;102959;-88
2021/08/16 05:17:26;;;;;;;0.40;0.00;;;;;;;20.95;66.58;99738.52;126330;1093;102972;-90
2021/08/16 05:19:57;;;;;;;0.40;0.00;;;;;;;20.95;66.65;99745.77;126255;1096;103027;-89
2021/08/16 05:22:25;;;;;;;0.40;0.00;;;;;;;20.98;66.41;99745.50;126246;1093;103402;-89
2021/08/16 05:24:55;;;;;;;0.40;0.00;;;;;;;21.03;66.50;99738.76;126382;1093;103019;-90
2021/08/16 05:27:40;;;;;;;;;;;;;;;;;;;;;
2021/08/16 05:30:19;;;;;;;0.40;0.00;;;;;;;20.99;66.84;99734.58;126220;1093;103344;-90
2021/08/16 05:32:57;;;;;;;0.40;0.00;;;;;;;20.97;67.62;99730.27;126345;1093;103761;-90
2021/08/16 05:35:30;;;;;;;0.40;0.00;;;;;;;20.96;67.54;99732.09;126407;1093;102876;-88
2021/08/16 05:38:04;;;;;;;0.40;0.10;;;;;;;21.03;67.24;99733.34;126379;1094;102962;-89
2021/08/16 05:40:39;;;;;;;0.40;0.00;;;;;;;21.09;67.59;99729.27;126349;1093;101851;-91
2021/08/16 05:43:08;;;;;;;0.40;0.00;;;;;;;21.05;67.47;99715.11;126334;1093;103004;-91
2021/08/16 05:46:06;;;;;;;0.40;0.10;;;;;;;21.07;68.03;99717.69;126415;1093;103153;-91
2021/08/16 05:48:48;;;;;;;0.40;0.00;;;;;;;21.15;68.29;99706.23;126355;1093;102908;-90
2021/08/16 05:51:15;;;;;;;0.40;0.00;;;;;;;21.22;68.67;99710.19;126340;1093;103046;-89
2021/08/16 05:53:47;;;;;;;0.40;0.00;;;;;;;21.24;68.24;99707.34;126227;1093;102906;-90
2021/08/16 05:56:15;;;;;;;0.40;0.10;;;;;;;21.30;68.23;99706.81;126262;1093;103023;-90
2021/08/16 05:59:00;;;;;;;0.40;0.00;;;;;;;21.38;68.24;99709.78;126209;1092;102933;-89
2021/08/16 06:01:49;;;;;;;0.40;0.00;;;;;;;21.50;67.95;99713.33;126325;1093;102884;-90
2021/08/16 06:04:18;;;;;;;0.40;0.00;;;;;;;21.65;67.77;99701.21;126371;1093;103052;-91
2021/08/16 06:06:46;;;;;;;0.40;0.00;;;;;;;21.75;67.80;99706.70;126330;1094;102962;-88
2021/08/16 06:09:29;;;;;;;0.40;0.00;;;;;;;21.83;67.95;99708.78;126376;1093;102878;-90
2021/08/16 06:11:58;;;;;;;0.40;0.00;;;;;;;21.92;67.23;99712.57;126291;1093;103421;-88
2021/08/16 06:14:26;;;;;;;0.40;0.00;;;;;;;21.91;67.74;99690.00;126268;1093;102882;-88
2021/08/16 06:16:59;;;;;;;0.40;0.00;;;;;;;21.95;67.41;99688.78;126386;1093;102895;-89
2021/08/16 06:19:26;;;;;;;0.40;0.00;;;;;;;22.00;67.80;99686.50;126282;1093;103000;-90
2021/08/16 06:21:54;;;;;;;0.40;0.00;;;;;;;22.00;67.73;99689.22;126335;1093;102882;-88
2021/08/16 06:24:21;;;;;;;0.40;0.00;;;;;;;22.08;67.46;99683.14;126352;1093;102985;-88
2021/08/16 06:26:48;;;;;;;0.40;0.00;;;;;;;22.15;67.10;99684.34;126346;1093;102888;-89
2021/08/16 06:29:15;;;;;;;0.40;0.03;;;;;;;22.26;67.08;99682.53;126366;1093;102585;-89
2021/08/16 06:31:42;;;;;;;0.40;0.00;;;;;;;22.34;67.56;99666.48;126298;1093;102912;-88
2021/08/16 06:34:14;;;;;;;0.40;0.00;;;;;;;22.32;66.64;99672.01;126291;1093;102890;-87
2021/08/16 06:36:43;;;;;;;0.40;0.05;;;;;;;;;;126152;1093;103049;-90
2021/08/16 06:39:21;;;;;;;0.40;0.00;;;;;;;22.38;67.36;99663.38;126067;1093;102940;-89
2021/08/16 06:41:51;;;;;;;0.40;0.00;;;;;;;22.45;66.99;99665.56;126195;1093;102887;-88
2021/08/16 06:44:23;;;;;;;0.40;0.00;;;;;;;22.60;67.29;99663.34;126353;1094;102925;-88
2021/08/16 06:46:51;;;;;;;0.40;0.00;;;;;;;22.70;67.20;99665.09;126409;1093;102895;-91
2021/08/16 06:49:19;;;;;;;0.40;0.00;;;;;;;22.76;66.50;99662.83;126254;1094;103332;-89
2021/08/16 06:51:47;;;;;;;0.40;0.00;;;;;;;22.90;66.59;99658.86;126401;1093;102987;-89
2021/08/16 06:54:14;;;;;;;0.40;0.00;;;;;;;22.97;66.30;99652.75;126393;1093;103338;-89
2021/08/16 06:57:00;;;;;;;0.40;0.00;;;;;;;23.13;66.27;99649.53;126348;1093;102967;-91
2021/08/16 06:59:27;;;;;;;0.40;0.00;;;;;;;23.34;65.34;99648.58;126283;1093;102948;-90
2021/08/16 07:02:00;;;;;;;0.40;0.00;;;;;;;23.48;64.25;99648.13;126308;1093;102978;-89
2021/08/16 07:04:34;;;;;;;0.40;0.00;;;;;;;23.54;64.29;99647.58;126346;1096;102956;-89
2021/08/16 07:07:24;;;;;;;0.40;0.00;;;;;;;23.73;64.28;99642.30;126216;1095;103259;-89
2021/08/16 07:09:51;;;;;;;0.40;0.00;;;;;;;23.90;63.53;99637.99;126127;1096;103005;-89
2021/08/16 07:12:20;;;;;;;0.40;0.00;;;;;;;24.04;62.86;99642.98;126151;1097;102912;-88
2021/08/16 07:14:48;;;;;;;0.40;0.10;;;;;;;24.17;62.57;99640.80;126201;1095;103128;-90
2021/08/16 07:17:15;;;;;;;0.40;0.00;;;;;;;24.34;62.76;99624.73;126166;1096;102929;-89
2021/08/16 07:19:43;;;;;;;0.40;0.00;;;;;;;24.44;61.73;99638.30;126289;1096;102941;-90
2021/08/16 07:22:11;;;;;;;0.40;0.00;;;;;;;24.52;61.13;99630.24;126163;1096;103533;-88
2021/08/16 07:24:38;;;;;;;0.40;0.00;;;;;;;24.62;61.01;99641.08;126117;1095;102988;-89
2021/08/16 07:27:05;;;;;;;0.40;0.00;;;;;;;24.72;60.13;99639.21;126405;1093;103164;-88
2021/08/16 07:29:33;;;;;;;0.40;0.00;;;;;;;24.87;59.74;99639.56;126298;1093;102394;-86
2021/08/16 07:32:00;;;;;;;0.40;0.00;;;;;;;24.93;58.81;99624.50;126255;1096;103000;-87
2021/08/16 07:34:37;;;;;;;0.40;0.00;;;;;;;24.97;59.31;99621.30;126305;1096;103018;-88
2021/08/16 07:37:08;;;;;;;0.40;0.00;;;;;;;25.08;59.44;99608.48;126306;1093;102887;-87
2021/08/16 07:39:35;;;;;;;0.40;0.00;;;;;;;25.29;58.47;99609.03;126278;1096;102929;-86
2021/08/16 07:42:03;;;;;;;0.40;0.00;;;;;;;25.42;58.28;99610.54;126332;1096;102884;-90
2021/08/16 07:44:30;;;;;;;0.40;0.00;;;;;;;25.52;57.54;99600.42;126215;1095;103090;-92
2021/08/16 07:46:59;;;;;;;0.40;0.00;;;;;;;25.65;57.34;99592.69;126245;1096;102919;-88
2021/08/16 07:49:33;;;;;;;0.40;0.00;;;;;;;25.75;56.53;99599.92;126177;1093;102871;-89
2021/08/16 07:52:02;;;;;;;0.40;0.00;;;;;;;25.85;56.24;99589.78;126217;1092;103103;-88
2021/08/16 07:54:29;;;;;;;0.40;0.00;;;;;;;25.95;55.70;99590.55;126249;1096;102959;-88
2021/08/16 07:56:56;;;;;;;0.40;0.00;;;;;;;26.03;54.43;99589.75;126279;1094;103087;-87
2021/08/16 07:59:28;;;;;;;0.40;0.00;;;;;;;26.10;53.92;99582.66;126224;1094;102905;-88
2021/08/16 08:01:56;;;;;;;0.40;0.00;;;;;;;26.21;54.01;99581.52;126167;1093;103004;-88
2021/08/16 08:04:23;;;;;;;0.40;0.00;;;;;;;26.30;52.75;99588.73;126225;1096;103046;-89
2021/08/16 08:06:50;;;;;;;0.40;0.00;;;;;;;26.42;52.67;99591.16;126283;1093;102910;-88
2021/08/16 08:09:17;;;;;;;0.40;0.00;;;;;;;26.51;50.76;99601.11;126306;1093;102919;-88
2021/08/16 08:11:45;;;;;;;0.40;0.00;;;;;;;26.59;51.81;99611.22;126221;1094;102889;-87
2021/08/16 08:14:13;;;;;;;0.40;0.00;;;;;;;26.70;51.28;99614.52;126247;1093;103006;-88
2021/08/16 08:16:40;;;;;;;0.40;0.00;;;;;;;26.82;52.18;99620.58;126330;1093;102932;-87
2021/08/16 08:19:07;;;;;;;0.40;0.00;;;;;;;26.98;49.85;99630.70;126300;1093;102917;-90
2021/08/16 08:21:35;;;;;;;0.40;0.00;;;;;;;27.22;50.16;99637.27;126319;1093;102894;-89
2021/08/16 08:24:02;;;;;;;0.40;0.00;;;;;;;27.54;49.91;99641.12;126248;1094;103036;-88
2021/08/16 08:26:29;;;;;;;0.40;0.00;;;;;;;27.70;47.33;99640.27;126267;1094;103100;-87
2021/08/16 08:28:57;;;;;;;0.40;0.00;;;;;;;27.78;48.30;99640.27;126313;1093;103029;-89
2021/08/16 08:31:26;;;;;;;0.40;0.00;;;;;;;27.92;49.35;99654.30;126171;1094;103029;-89
2021/08/16 08:33:54;;;;;;;0.40;0.00;;;;;;;27.96;47.33;99666.61;126299;1093;103017;-90
2021/08/16 08:36:21;;;;;;;0.40;0.00;;;;;;;28.00;47.38;99668.84;126274;1093;102910;-90
2021/08/16 08:38:48;;;;;;;0.40;0.00;;;;;;;27.97;47.28;99673.80;126258;1093;102881;-88
2021/08/16 08:41:17;;;;;;;0.40;0.00;;;;;;;27.90;48.92;99672.75;126127;1094;103062;-91
2021/08/16 08:43:47;;;;;;;0.40;0.00;;;;;;;27.75;47.20;99672.58;126225;1093;103087;-88
2021/08/16 08:46:14;;;;;;;0.40;0.00;;;;;;;27.66;47.81;99669.00;126252;1093;102974;-88
2021/08/16 08:48:43;;;;;;;0.40;0.00;;;;;;;27.52;48.72;99670.50;126233;1093;103080;-87
2021/08/16 08:51:10;;;;;;;0.40;0.00;;;;;;;27.33;48.67;99664.28;126316;1093;102993;-87
2021/08/16 08:53:37;;;;;;;0.40;0.00;;;;;;;27.25;49.54;99664.27;126241;1092;102890;-87
2021/08/16 08:56:05;;;;;;;0.40;0.00;;;;;;;27.16;50.26;99657.06;126319;1093;102959;-87
2021/08/16 08:58:33;;;;;;;0.40;0.00;;;;;;;27.06;52.16;99649.02;126233;1093;103180;-86
2021/08/16 09:01:00;;;;;;;0.40;0.00;;;;;;;26.93;53.89;99638.55;126330;1093;103030;-87
2021/08/16 09:03:28;;;;;;;0.40;0.00;;;;;;;26.81;54.88;99632.52;126272;1093;101801;-87
2021/08/16 09:05:58;;;;;;;0.40;0.00;;;;;;;26.79;54.80;99625.50;126453;1093;102932;-87
2021/08/16 09:08:32;;;;;;;0.40;0.00;;;;;;;26.90;54.93;99629.81;126334;1093;103082;-86
2021/08/16 09:11:14;;;;;;;0.40;0.00;;;;;;;27.20;54.89;99622.90;126270;1093;103023;-87
2021/08/16 09:13:57;;;;;;;0.40;0.00;;;;;;;27.50;53.83;99615.13;126377;1093;102994;-86
2021/08/16 09:16:27;;;;;;;0.40;0.00;;;;;;;27.67;54.10;99600.44;126376;1093;103097;-86
2021/08/16 09:18:55;;;;;;;0.40;0.00;;;;;;;28.02;51.71;99603.85;126362;1093;102987;-86
2021/08/16 09:21:28;;;;;;;0.40;0.00;;;;;;;28.30;52.12;99597.13;126380;1093;103019;-87
2021/08/16 09:23:57;;;;;;;0.40;0.00;;;;;;;28.49;50.42;99596.70;126376;1093;102713;-86
2021/08/16 09:26:30;;;;;;;0.40;0.00;;;;;;;28.63;49.38;99595.13;126391;1094;103027;-90
2021/08/16 09:29:20;;;;;;;0.40;0.00;;;;;;;29.31;48.36;99611.95;126286;1093;103381;-85
2021/08/16 09:31:57;;;;;;;0.40;0.00;;;;;;;29.67;47.93;99604.98;126186;1093;102894;-89
2021/08/16 09:34:42;;;;;;;0.40;0.00;;;;;;;29.38;46.11;99601.11;126325;1093;102884;-88
2021/08/16 09:37:23;;;;;;;0.40;0.00;;;;;;;29.25;46.76;99609.89;126324;1093;103035;-88
2021/08/16 09:40:06;;;;;;;0.40;0.00;;;;;;;29.37;45.48;99609.52;126399;1093;103543;-85
2021/08/16 09:42:51;;;;;;;0.40;0.00;;;;;;;29.74;44.52;99610.58;126474;1093;102416;-90
2021/08/16 09:45:39;;;;;;;0.40;0.00;;;;;;;30.39;43.27;99594.52;126293;1093;102883;-88
2021/08/16 09:48:20;;;;;;;0.40;0.00;;;;;;;31.34;40.16;99606.56;126303;1093;103029;-87
2021/08/16 09:50:50;;;;;;;0.40;0.00;;;;;;;32.68;39.61;99597.47;126285;1093;103361;-88
2021/08/16 09:53:26;;;;;;;0.40;0.00;;;;;;;32.88;37.81;99599.47;126287;1093;103045;-89
2021/08/16 09:56:01;;;;;;;0.40;0.00;;;;;;;32.99;38.01;99587.02;126286;1093;103342;-88
2021/08/16 09:58:29;;;;;;;0.40;0.00;;;;;;;32.29;38.51;99596.17;126266;1094;103007;-89
2021/08/16 10:00:57;;;;;;;0.40;0.00;;;;;;;31.92;39.65;99600.96;126336;1093;103022;-89
2021/08/16 10:03:26;;;;;;;0.40;0.00;;;;;;;31.96;38.30;99591.28;126259;1092;102974;-89
2021/08/16 10:05:56;;;;;;;0.40;0.00;;;;;;;32.79;36.76;99587.78;126275;1093;103089;-89
2021/08/16 10:08:26;;;;;;;0.40;0.00;;;;;;;33.20;36.66;99590.67;126299;1093;102966;-88
2021/08/16 10:10:55;;;;;;;0.40;0.00;;;;;;;34.29;35.89;99583.09;126422;1093;103341;-89
2021/08/16 10:13:23;;;;;;;0.40;0.00;;;;;;;35.30;32.52;99578.88;126351;1093;102999;-90
2021/08/16 10:16:03;;;;;;;0.40;0.00;;;;;;;36.16;30.93;99589.52;126366;1093;103017;-90
2021/08/16 10:18:39;;;;;;;0.40;0.00;;;;;;;36.74;29.71;99585.49;126334;1092;102971;-84
2021/08/16 10:21:06;;;;;;;0.40;0.00;;;;;;;37.14;30.43;99582.20;126329;1096;103064;-90
2021/08/16 10:23:34;;;;;;;0.40;0.00;;;;;;;37.98;29.86;99589.69;126244;1093;103149;-90
2021/08/16 10:26:02;;;;;;;0.40;0.00;;;;;;;38.30;27.67;99585.73;126237;1093;103023;-86
2021/08/16 10:28:34;;;;;;;0.40;0.00;;;;;;;38.76;27.56;99591.47;126370;1093;102881;-87
2021/08/16 10:31:03;;;;;;;0.40;0.00;;;;;;;38.56;27.72;99597.41;126311;1093;102876;-88
2021/08/16 10:33:42;;;;;;;0.40;0.00;;;;;;;37.53;28.51;99583.81;126252;1093;102876;-87
2021/08/16 10:36:19;;;;;;;0.40;0.00;;;;;;;36.84;29.96;99595.23;126192;1093;102923;-87
2021/08/16 10:38:48;;;;;;;0.40;0.00;;;;;;;35.61;30.48;99592.97;126290;1093;102959;-86
2021/08/16 10:41:30;;;;;;;0.40;0.00;;;;;;;34.66;32.86;99592.58;126234;1093;102993;-87
2021/08/16 10:43:58;;;;;;;0.40;0.00;;;;;;;33.73;33.67;99599.05;126167;1093;102893;-89
2021/08/16 10:46:25;;;;;;;0.40;0.00;;;;;;;33.05;35.33;99597.20;126426;1093;103038;-88
2021/08/16 10:49:06;;;;;;;0.40;0.00;;;;;;;32.47;36.71;99595.66;126244;1093;102899;-90
2021/08/16 10:51:38;;;;;;;0.40;0.00;;;;;;;31.88;38.10;99593.31;126274;1093;102871;-90
2021/08/16 10:54:06;;;;;;;0.40;0.00;;;;;;;31.42;38.48;99591.83;126190;1093;102975;-90
2021/08/16 10:56:33;;;;;;;0.40;0.00;;;;;;;31.11;39.46;99585.58;126169;1094;102996;-91
2021/08/16 10:59:01;;;;;;;0.40;0.00;;;;;;;30.96;40.61;99576.48;126229;1096;105652;-89
2021/08/16 11:01:34;;;;;;;0.40;0.00;;;;;;;30.77;40.98;99569.70;126255;1094;102962;-90
2021/08/16 11:04:35;;;;;;;0.40;0.00;;;;;;;30.57;41.78;99569.45;126243;1093;103887;-91
2021/08/16 11:07:08;;;;;;;0.40;0.00;;;;;;;30.33;42.04;99560.43;126408;1093;102903;-88
2021/08/16 11:09:39;;;;;;;0.40;0.00;;;;;;;30.30;42.76;99563.56;126262;1093;103019;-90
2021/08/16 11:12:09;;;;;;;0.40;0.00;;;;;;;30.27;43.06;99555.69;126268;1094;103201;-90
2021/08/16 11:14:41;;;;;;;0.40;0.00;;;;;;;30.21;43.43;99542.73;126267;1093;103030;-90
2021/08/16 11:17:10;;;;;;;0.40;0.00;;;;;;;30.21;43.92;99535.33;126359;1093;103153;-92
2021/08/16 11:19:43;;;;;;;0.40;0.00;;;;;;;30.21;43.53;99545.48;126254;1093;102895;-90
2021/08/16 11:22:12;;;;;;;0.40;0.00;;;;;;;30.27;44.00;99558.43;126366;1093;103122;-91
2021/08/16 11:24:47;;;;;;;0.40;0.00;;;;;;;30.22;43.21;99549.91;126240;1093;102905;-91
2021/08/16 11:27:20;;;;;;;0.40;0.00;;;;;;;30.21;44.05;99538.08;126424;1093;103096;-91
2021/08/16 11:30:05;;;;;;;0.40;0.00;;;;;;;30.31;43.62;99546.89;126443;1093;102919;-90
2021/08/16 11:32:34;;;;;;;0.40;0.00;;;;;;;30.46;43.04;99541.41;126284;1094;102879;-89
2021/08/16 11:35:04;;;;;;;0.40;0.00;;;;;;;30.63;43.95;99538.44;126290;1094;102912;-89
2021/08/16 11:37:35;;;;;;;0.40;0.00;;;;;;;30.60;42.95;99542.42;126330;1092;102956;-87